sensor_id;sensor_type;location;lat;lon;timestamp;pressure;altitude;pressure_sealevel;temperature;humidity
47815;BME280;33579;50.058;18.130;2023-08-08T00:00:16;98963.56;;;14.34;100.00
47815;BME280;33579;50.058;18.130;2023-08-08T00:01:18;98960.41;;;14.30;100.00
47815;BME280;33579;50.058;18.130;2023-08-08T00:02:20;98962.41;;;14.28;100.00
47815;BME280;33579;50.058;18.130;2023-08-08T00:03:21;98957.59;;;14.32;100.00
47815;BME280;33579;50.058;18.130;2023-08-08T00:04:23;98962.56;;;14.27;100.00
47815;BME280;33579;50.058;18.130;2023-08-08T00:05:25;98953.13;;;14.24;100.00
47815;BME280;33579;50.058;18.130;2023-08-08T00:06:27;98958.59;;;14.31;100.00
47815;BME280;33579;50.058;18.130;2023-08-08T00:07:28;98964.06;;;14.29;100.00
47815;BME280;33579;50.058;18.130;2023-08-08T00:08:30;98963.03;;;14.22;100.00
47815;BME280;33579;50.058;18.130;2023-08-08T00:09:32;98969.97;;;14.23;100.00
47815;BME280;33579;50.058;18.130;2023-08-08T00:10:33;98967.81;;;14.18;100.00
47815;BME280;33579;50.058;18.130;2023-08-08T00:11:35;98964.03;;;14.21;100.00
47815;BME280;33579;50.058;18.130;2023-08-08T00:12:37;98967.53;;;14.22;100.00
47815;BME280;33579;50.058;18.130;2023-08-08T00:13:38;98961.38;;;14.21;100.00
47815;BME280;33579;50.058;18.130;2023-08-08T00:14:40;98961.72;;;14.18;100.00
47815;BME280;33579;50.058;18.130;2023-08-08T00:15:42;98956.06;;;14.13;100.00
47815;BME280;33579;50.058;18.130;2023-08-08T00:16:44;98954.28;;;14.13;100.00
47815;BME280;33579;50.058;18.130;2023-08-08T00:17:46;98959.06;;;14.18;100.00
47815;BME280;33579;50.058;18.130;2023-08-08T00:18:48;98966.53;;;14.23;100.00
47815;BME280;33579;50.058;18.130;2023-08-08T00:19:50;98962.72;;;14.17;100.00
47815;BME280;33579;50.058;18.130;2023-08-08T00:20:51;98962.88;;;14.15;100.00
47815;BME280;33579;50.058;18.130;2023-08-08T00:21:53;98962.06;;;14.15;100.00
47815;BME280;33579;50.058;18.130;2023-08-08T00:22:55;98963.19;;;14.12;100.00
47815;BME280;33579;50.058;18.130;2023-08-08T00:23:56;98962.88;;;14.15;100.00
47815;BME280;33579;50.058;18.130;2023-08-08T00:24:58;98963.81;;;14.06;100.00
47815;BME280;33579;50.058;18.130;2023-08-08T00:26:00;98963.19;;;14.12;100.00
47815;BME280;33579;50.058;18.130;2023-08-08T00:27:01;98967.00;;;14.10;100.00
47815;BME280;33579;50.058;18.130;2023-08-08T00:28:04;98962.50;;;14.02;100.00
47815;BME280;33579;50.058;18.130;2023-08-08T00:29:06;98963.50;;;14.01;100.00
47815;BME280;33579;50.058;18.130;2023-08-08T00:30:08;98960.34;;;13.97;100.00
47815;BME280;33579;50.058;18.130;2023-08-08T00:31:10;98963.84;;;13.98;100.00
47815;BME280;33579;50.058;18.130;2023-08-08T00:32:12;98966.16;;;14.01;100.00
47815;BME280;33579;50.058;18.130;2023-08-08T00:33:14;98966.81;;;14.03;100.00
47815;BME280;33579;50.058;18.130;2023-08-08T00:34:16;98966.31;;;14.08;100.00
47815;BME280;33579;50.058;18.130;2023-08-08T00:35:17;98967.16;;;14.08;100.00
47815;BME280;33579;50.058;18.130;2023-08-08T00:36:19;98965.66;;;14.05;100.00
47815;BME280;33579;50.058;18.130;2023-08-08T00:37:21;98966.28;;;13.99;100.00
47815;BME280;33579;50.058;18.130;2023-08-08T00:38:23;98966.47;;;13.98;100.00
47815;BME280;33579;50.058;18.130;2023-08-08T00:39:24;98970.41;;;13.94;100.00
47815;BME280;33579;50.058;18.130;2023-08-08T00:40:26;98972.56;;;13.90;100.00
47815;BME280;33579;50.058;18.130;2023-08-08T00:41:28;98975.38;;;13.88;100.00
47815;BME280;33579;50.058;18.130;2023-08-08T00:42:29;98972.56;;;13.90;100.00
47815;BME280;33579;50.058;18.130;2023-08-08T00:43:31;98968.06;;;13.82;100.00
47815;BME280;33579;50.058;18.130;2023-08-08T00:44:33;98969.38;;;13.78;100.00
47815;BME280;33579;50.058;18.130;2023-08-08T00:45:35;98969.72;;;13.75;100.00
47815;BME280;33579;50.058;18.130;2023-08-08T00:46:37;98974.81;;;13.76;100.00
47815;BME280;33579;50.058;18.130;2023-08-08T00:47:39;98970.03;;;13.80;100.00
47815;BME280;33579;50.058;18.130;2023-08-08T00:48:41;98971.69;;;13.73;100.00
47815;BME280;33579;50.058;18.130;2023-08-08T00:49:43;98973.16;;;13.75;100.00
47815;BME280;33579;50.058;18.130;2023-08-08T00:50:45;98982.59;;;13.78;100.00
47815;BME280;33579;50.058;18.130;2023-08-08T00:51:49;98975.34;;;13.80;100.00
47815;BME280;33579;50.058;18.130;2023-08-08T00:52:52;98973.34;;;13.82;100.00
47815;BME280;33579;50.058;18.130;2023-08-08T00:53:54;98975.84;;;13.84;100.00
47815;BME280;33579;50.058;18.130;2023-08-08T00:54:56;98974.84;;;13.85;100.00
47815;BME280;33579;50.058;18.130;2023-08-08T00:55:58;98976.69;;;13.84;100.00
47815;BME280;33579;50.058;18.130;2023-08-08T00:57:00;98973.00;;;13.77;100.00
47815;BME280;33579;50.058;18.130;2023-08-08T00:58:02;98974.00;;;13.76;100.00
47815;BME280;33579;50.058;18.130;2023-08-08T00:59:04;98968.19;;;13.72;100.00
47815;BME280;33579;50.058;18.130;2023-08-08T01:00:07;98972.16;;;13.68;100.00
47815;BME280;33579;50.058;18.130;2023-08-08T01:01:09;98971.50;;;13.66;100.00
47815;BME280;33579;50.058;18.130;2023-08-08T01:02:11;98974.28;;;13.65;100.00
47815;BME280;33579;50.058;18.130;2023-08-08T01:03:13;98967.19;;;13.65;100.00
47815;BME280;33579;50.058;18.130;2023-08-08T01:04:16;98977.59;;;13.58;100.00
47815;BME280;33579;50.058;18.130;2023-08-08T01:05:18;98975.59;;;13.60;100.00
47815;BME280;33579;50.058;18.130;2023-08-08T01:06:29;98983.00;;;13.57;100.00
47815;BME280;33579;50.058;18.130;2023-08-08T01:08:52;98979.72;;;13.63;100.00
47815;BME280;33579;50.058;18.130;2023-08-08T01:10:09;98980.09;;;13.68;100.00
47815;BME280;33579;50.058;18.130;2023-08-08T01:11:11;98972.81;;;13.70;100.00
47815;BME280;33579;50.058;18.130;2023-08-08T01:12:14;98976.09;;;13.64;100.00
47815;BME280;33579;50.058;18.130;2023-08-08T01:13:21;98981.38;;;13.56;100.00
47815;BME280;33579;50.058;18.130;2023-08-08T01:14:25;98974.22;;;13.48;100.00
47815;BME280;33579;50.058;18.130;2023-08-08T01:15:29;98974.56;;;13.53;100.00
47815;BME280;33579;50.058;18.130;2023-08-08T01:16:32;98974.56;;;13.53;100.00
47815;BME280;33579;50.058;18.130;2023-08-08T01:17:35;98977.00;;;13.46;100.00
47815;BME280;33579;50.058;18.130;2023-08-08T01:18:37;98975.72;;;13.51;100.00
47815;BME280;33579;50.058;18.130;2023-08-08T01:19:39;98975.22;;;13.47;100.00
47815;BME280;33579;50.058;18.130;2023-08-08T01:20:43;98977.34;;;13.52;100.00
47815;BME280;33579;50.058;18.130;2023-08-08T01:21:45;98976.22;;;13.46;100.00
47815;BME280;33579;50.058;18.130;2023-08-08T01:23:12;98977.47;;;13.42;100.00
47815;BME280;33579;50.058;18.130;2023-08-08T01:24:25;98972.50;;;13.39;100.00
47815;BME280;33579;50.058;18.130;2023-08-08T01:25:28;98979.81;;;13.45;100.00
47815;BME280;33579;50.058;18.130;2023-08-08T01:26:31;98971.50;;;13.40;100.00
47815;BME280;33579;50.058;18.130;2023-08-08T01:27:33;98979.75;;;13.37;100.00
47815;BME280;33579;50.058;18.130;2023-08-08T01:28:35;98979.44;;;13.40;100.00
47815;BME280;33579;50.058;18.130;2023-08-08T01:29:37;98979.28;;;13.41;100.00
47815;BME280;33579;50.058;18.130;2023-08-08T01:30:39;98984.19;;;13.36;100.00
47815;BME280;33579;50.058;18.130;2023-08-08T01:31:41;98977.59;;;13.32;100.00
47815;BME280;33579;50.058;18.130;2023-08-08T01:32:43;98978.38;;;13.32;100.00
47815;BME280;33579;50.058;18.130;2023-08-08T01:33:44;98977.13;;;13.37;100.00
47815;BME280;33579;50.058;18.130;2023-08-08T01:34:47;98979.75;;;13.37;100.00
47815;BME280;33579;50.058;18.130;2023-08-08T01:36:03;98979.09;;;13.43;100.00
47815;BME280;33579;50.058;18.130;2023-08-08T01:37:29;98984.72;;;13.40;100.00
47815;BME280;33579;50.058;18.130;2023-08-08T01:38:36;98985.84;;;13.37;100.00
47815;BME280;33579;50.058;18.130;2023-08-08T01:39:40;98981.41;;;13.38;100.00
47815;BME280;33579;50.058;18.130;2023-08-08T01:40:44;98989.94;;;13.31;100.00
47815;BME280;33579;50.058;18.130;2023-08-08T01:41:47;98989.13;;;13.31;100.00
47815;BME280;33579;50.058;18.130;2023-08-08T01:42:50;98984.16;;;13.28;100.00
47815;BME280;33579;50.058;18.130;2023-08-08T01:43:52;98991.56;;;13.24;100.00
47815;BME280;33579;50.058;18.130;2023-08-08T01:44:55;98987.28;;;13.23;100.00
47815;BME280;33579;50.058;18.130;2023-08-08T01:45:57;98990.53;;;13.17;100.00
47815;BME280;33579;50.058;18.130;2023-08-08T01:46:59;98986.50;;;13.04;100.00
47815;BME280;33579;50.058;18.130;2023-08-08T01:48:06;98991.31;;;13.09;100.00
47815;BME280;33579;50.058;18.130;2023-08-08T01:49:08;98986.66;;;13.03;100.00
47815;BME280;33579;50.058;18.130;2023-08-08T01:50:10;98993.38;;;12.97;100.00
47815;BME280;33579;50.058;18.130;2023-08-08T01:51:12;98997.81;;;12.97;100.00
47815;BME280;33579;50.058;18.130;2023-08-08T01:52:14;98986.38;;;12.88;100.00
47815;BME280;33579;50.058;18.130;2023-08-08T01:53:15;98990.59;;;12.81;100.00
47815;BME280;33579;50.058;18.130;2023-08-08T01:54:18;98995.84;;;12.72;100.00
47815;BME280;33579;50.058;18.130;2023-08-08T01:55:19;98987.75;;;12.74;100.00
47815;BME280;33579;50.058;18.130;2023-08-08T01:56:21;98990.06;;;12.77;100.00
47815;BME280;33579;50.058;18.130;2023-08-08T01:57:23;98988.94;;;12.79;100.00
47815;BME280;33579;50.058;18.130;2023-08-08T01:58:25;98987.81;;;12.82;100.00
47815;BME280;33579;50.058;18.130;2023-08-08T01:59:26;98988.81;;;12.81;100.00
47815;BME280;33579;50.058;18.130;2023-08-08T02:00:28;98995.28;;;12.87;100.00
47815;BME280;33579;50.058;18.130;2023-08-08T02:01:30;98989.34;;;12.85;100.00
47815;BME280;33579;50.058;18.130;2023-08-08T02:02:32;98984.09;;;12.93;100.00
47815;BME280;33579;50.058;18.130;2023-08-08T02:03:34;98989.38;;;12.93;100.00
47815;BME280;33579;50.058;18.130;2023-08-08T02:04:36;98979.81;;;12.92;100.00
47815;BME280;33579;50.058;18.130;2023-08-08T02:05:38;98991.44;;;12.81;100.00
47815;BME280;33579;50.058;18.130;2023-08-08T02:06:40;98988.72;;;12.73;100.00
47815;BME280;33579;50.058;18.130;2023-08-08T02:07:41;98988.88;;;12.71;100.00
47815;BME280;33579;50.058;18.130;2023-08-08T02:08:43;98984.75;;;12.69;100.00
47815;BME280;33579;50.058;18.130;2023-08-08T02:09:45;98985.75;;;12.68;100.00
47815;BME280;33579;50.058;18.130;2023-08-08T02:10:47;98987.31;;;12.60;100.00
47815;BME280;33579;50.058;18.130;2023-08-08T02:11:48;98990.78;;;12.61;100.00
47815;BME280;33579;50.058;18.130;2023-08-08T02:12:50;98995.38;;;12.59;100.00
47815;BME280;33579;50.058;18.130;2023-08-08T02:13:52;98988.16;;;12.61;100.00
47815;BME280;33579;50.058;18.130;2023-08-08T02:14:54;98989.59;;;12.55;100.00
47815;BME280;33579;50.058;18.130;2023-08-08T02:15:56;98989.88;;;12.52;100.00
47815;BME280;33579;50.058;18.130;2023-08-08T02:16:57;98989.41;;;12.57;100.00
47815;BME280;33579;50.058;18.130;2023-08-08T02:17:59;98987.75;;;12.56;100.00
47815;BME280;33579;50.058;18.130;2023-08-08T02:19:01;98988.75;;;12.55;100.00
47815;BME280;33579;50.058;18.130;2023-08-08T02:20:03;98991.47;;;12.45;100.00
47815;BME280;33579;50.058;18.130;2023-08-08T02:21:05;98995.00;;;12.54;100.00
47815;BME280;33579;50.058;18.130;2023-08-08T02:22:07;98991.25;;;12.56;100.00
47815;BME280;33579;50.058;18.130;2023-08-08T02:23:08;98992.28;;;12.63;100.00
47815;BME280;33579;50.058;18.130;2023-08-08T02:24:10;98989.72;;;12.72;100.00
47815;BME280;33579;50.058;18.130;2023-08-08T02:25:12;98990.56;;;12.72;100.00
47815;BME280;33579;50.058;18.130;2023-08-08T02:26:14;98995.88;;;12.81;100.00
47815;BME280;33579;50.058;18.130;2023-08-08T02:27:15;98997.72;;;12.80;100.00
47815;BME280;33579;50.058;18.130;2023-08-08T02:28:17;98994.22;;;12.79;100.00
47815;BME280;33579;50.058;18.130;2023-08-08T02:29:19;99001.34;;;12.79;100.00
47815;BME280;33579;50.058;18.130;2023-08-08T02:30:20;98990.28;;;12.84;100.00
47815;BME280;33579;50.058;18.130;2023-08-08T02:31:22;98989.78;;;12.80;100.00
47815;BME280;33579;50.058;18.130;2023-08-08T02:32:24;98979.72;;;12.84;100.00
47815;BME280;33579;50.058;18.130;2023-08-08T02:33:28;98983.06;;;12.86;100.00
47815;BME280;33579;50.058;18.130;2023-08-08T02:34:30;98984.72;;;12.87;100.00
47815;BME280;33579;50.058;18.130;2023-08-08T02:35:31;98984.94;;;12.93;100.00
47815;BME280;33579;50.058;18.130;2023-08-08T02:36:33;98994.31;;;12.88;100.00
47815;BME280;33579;50.058;18.130;2023-08-08T02:37:35;98994.50;;;12.95;100.00
47815;BME280;33579;50.058;18.130;2023-08-08T02:38:37;98995.72;;;13.00;100.00
47815;BME280;33579;50.058;18.130;2023-08-08T02:39:39;98995.25;;;13.05;100.00
47815;BME280;33579;50.058;18.130;2023-08-08T02:40:40;98998.38;;;13.08;100.00
47815;BME280;33579;50.058;18.130;2023-08-08T02:41:42;98997.63;;;13.16;100.00
47815;BME280;33579;50.058;18.130;2023-08-08T02:42:44;98997.47;;;13.18;100.00
47815;BME280;33579;50.058;18.130;2023-08-08T02:43:46;98999.44;;;13.16;100.00
47815;BME280;33579;50.058;18.130;2023-08-08T02:44:47;99004.06;;;13.14;100.00
47815;BME280;33579;50.058;18.130;2023-08-08T02:45:49;99003.22;;;13.13;100.00
47815;BME280;33579;50.058;18.130;2023-08-08T02:46:51;98995.97;;;13.15;100.00
47815;BME280;33579;50.058;18.130;2023-08-08T02:47:53;98990.91;;;13.22;100.00
47815;BME280;33579;50.058;18.130;2023-08-08T02:48:54;98998.34;;;13.27;100.00
47815;BME280;33579;50.058;18.130;2023-08-08T02:49:56;99000.47;;;13.23;100.00
47815;BME280;33579;50.058;18.130;2023-08-08T02:50:58;98996.84;;;13.24;100.00
47815;BME280;33579;50.058;18.130;2023-08-08T02:52:01;98997.16;;;13.21;100.00
47815;BME280;33579;50.058;18.130;2023-08-08T02:53:06;98990.41;;;13.27;100.00
47815;BME280;33579;50.058;18.130;2023-08-08T02:54:13;98998.50;;;13.25;100.00
47815;BME280;33579;50.058;18.130;2023-08-08T02:55:17;98999.31;;;13.26;100.00
47815;BME280;33579;50.058;18.130;2023-08-08T02:56:22;98996.34;;;13.20;100.00
47815;BME280;33579;50.058;18.130;2023-08-08T02:57:25;99000.28;;;13.16;100.00
47815;BME280;33579;50.058;18.130;2023-08-08T02:58:29;99003.06;;;13.15;100.00
47815;BME280;33579;50.058;18.130;2023-08-08T02:59:32;98998.50;;;13.25;100.00
47815;BME280;33579;50.058;18.130;2023-08-08T03:00:37;99010.59;;;13.28;100.00
47815;BME280;33579;50.058;18.130;2023-08-08T03:01:42;99014.50;;;13.24;100.00
47815;BME280;33579;50.058;18.130;2023-08-08T03:02:50;99008.09;;;13.26;100.00
47815;BME280;33579;50.058;18.130;2023-08-08T03:03:52;99010.22;;;13.23;100.00
47815;BME280;33579;50.058;18.130;2023-08-08T03:04:56;99007.41;;;13.24;100.00
47815;BME280;33579;50.058;18.130;2023-08-08T03:06:00;99004.13;;;13.22;100.00
47815;BME280;33579;50.058;18.130;2023-08-08T03:07:02;99005.56;;;13.16;100.00
47815;BME280;33579;50.058;18.130;2023-08-08T03:08:05;99006.69;;;13.14;100.00
47815;BME280;33579;50.058;18.130;2023-08-08T03:09:07;99009.34;;;13.14;100.00
47815;BME280;33579;50.058;18.130;2023-08-08T03:10:11;99008.03;;;13.18;100.00
47815;BME280;33579;50.058;18.130;2023-08-08T03:11:14;99014.16;;;13.18;100.00
47815;BME280;33579;50.058;18.130;2023-08-08T03:12:15;99017.78;;;13.17;100.00
47815;BME280;33579;50.058;18.130;2023-08-08T03:13:17;99014.97;;;13.19;100.00
47815;BME280;33579;50.058;18.130;2023-08-08T03:14:19;99014.97;;;13.19;100.00
47815;BME280;33579;50.058;18.130;2023-08-08T03:15:21;99014.81;;;13.20;100.00
47815;BME280;33579;50.058;18.130;2023-08-08T03:16:23;99013.97;;;13.20;100.00
47815;BME280;33579;50.058;18.130;2023-08-08T03:17:26;99008.56;;;13.21;100.00
47815;BME280;33579;50.058;18.130;2023-08-08T03:18:30;99016.28;;;13.15;100.00
47815;BME280;33579;50.058;18.130;2023-08-08T03:19:32;99021.34;;;13.08;100.00
47815;BME280;33579;50.058;18.130;2023-08-08T03:20:35;99014.56;;;13.05;100.00
47815;BME280;33579;50.058;18.130;2023-08-08T03:21:37;99008.13;;;13.08;100.00
47815;BME280;33579;50.058;18.130;2023-08-08T03:22:39;99012.28;;;13.11;100.00
47815;BME280;33579;50.058;18.130;2023-08-08T03:23:44;99010.63;;;13.10;100.00
47815;BME280;33579;50.058;18.130;2023-08-08T03:24:46;99006.81;;;13.04;100.00
47815;BME280;33579;50.058;18.130;2023-08-08T03:25:47;99018.19;;;13.04;100.00
47815;BME280;33579;50.058;18.130;2023-08-08T03:26:50;99013.75;;;13.05;100.00
47815;BME280;33579;50.058;18.130;2023-08-08T03:27:52;99022.34;;;13.07;100.00
47815;BME280;33579;50.058;18.130;2023-08-08T03:28:54;99025.31;;;13.12;100.00
47815;BME280;33579;50.058;18.130;2023-08-08T03:30:03;99015.06;;;13.09;100.00
47815;BME280;33579;50.058;18.130;2023-08-08T03:31:11;99019.31;;;13.02;100.00
47815;BME280;33579;50.058;18.130;2023-08-08T03:32:14;99023.91;;;13.00;100.00
47815;BME280;33579;50.058;18.130;2023-08-08T03:33:16;99016.31;;;12.97;100.00
47815;BME280;33579;50.058;18.130;2023-08-08T03:34:18;99018.34;;;13.03;100.00
47815;BME280;33579;50.058;18.130;2023-08-08T03:35:19;99020.91;;;12.95;100.00
47815;BME280;33579;50.058;18.130;2023-08-08T03:36:21;99018.50;;;13.01;100.00
47815;BME280;33579;50.058;18.130;2023-08-08T03:37:23;99026.03;;;12.96;100.00
47815;BME280;33579;50.058;18.130;2023-08-08T03:38:25;99031.47;;;12.95;100.00
47815;BME280;33579;50.058;18.130;2023-08-08T03:39:26;99029.06;;;13.01;100.00
47815;BME280;33579;50.058;18.130;2023-08-08T03:40:28;99028.06;;;13.02;100.00
47815;BME280;33579;50.058;18.130;2023-08-08T03:41:30;99025.88;;;12.98;100.00
47815;BME280;33579;50.058;18.130;2023-08-08T03:42:32;99029.97;;;12.92;100.00
47815;BME280;33579;50.058;18.130;2023-08-08T03:43:33;99029.16;;;12.91;100.00
47815;BME280;33579;50.058;18.130;2023-08-08T03:44:35;99035.69;;;12.87;100.00
47815;BME280;33579;50.058;18.130;2023-08-08T03:45:37;99038.13;;;12.81;100.00
47815;BME280;33579;50.058;18.130;2023-08-08T03:46:38;99037.81;;;12.84;100.00
47815;BME280;33579;50.058;18.130;2023-08-08T03:47:40;99030.19;;;12.81;100.00
47815;BME280;33579;50.058;18.130;2023-08-08T03:48:42;99039.50;;;12.85;100.00
47815;BME280;33579;50.058;18.130;2023-08-08T03:49:44;99040.63;;;12.82;100.00
47815;BME280;33579;50.058;18.130;2023-08-08T03:50:46;99041.16;;;12.86;100.00
47815;BME280;33579;50.058;18.130;2023-08-08T03:51:48;99043.25;;;12.82;100.00
47815;BME280;33579;50.058;18.130;2023-08-08T03:52:49;99042.06;;;12.76;100.00
47815;BME280;33579;50.058;18.130;2023-08-08T03:53:52;99042.88;;;12.77;100.00
47815;BME280;33579;50.058;18.130;2023-08-08T03:54:54;99034.00;;;12.78;100.00
47815;BME280;33579;50.058;18.130;2023-08-08T03:55:56;99046.81;;;12.73;100.00
47815;BME280;33579;50.058;18.130;2023-08-08T03:56:58;99050.28;;;12.73;100.00
47815;BME280;33579;50.058;18.130;2023-08-08T03:58:01;99048.47;;;12.74;100.00
47815;BME280;33579;50.058;18.130;2023-08-08T03:59:02;99051.94;;;12.74;100.00
47815;BME280;33579;50.058;18.130;2023-08-08T04:00:05;99057.91;;;12.76;100.00
47815;BME280;33579;50.058;18.130;2023-08-08T04:01:13;99058.72;;;12.77;100.00
47815;BME280;33579;50.058;18.130;2023-08-08T04:02:15;99061.22;;;12.78;100.00
47815;BME280;33579;50.058;18.130;2023-08-08T04:03:18;99064.28;;;12.74;100.00
47815;BME280;33579;50.058;18.130;2023-08-08T04:04:20;99066.72;;;12.67;100.00
47815;BME280;33579;50.058;18.130;2023-08-08T04:05:21;99066.72;;;12.67;100.00
47815;BME280;33579;50.058;18.130;2023-08-08T04:06:23;99071.00;;;12.68;100.00
47815;BME280;33579;50.058;18.130;2023-08-08T04:07:24;99071.41;;;12.73;100.00
47815;BME280;33579;50.058;18.130;2023-08-08T04:08:26;99074.03;;;12.73;100.00
47815;BME280;33579;50.058;18.130;2023-08-08T04:09:28;99078.88;;;12.78;100.00
47815;BME280;33579;50.058;18.130;2023-08-08T04:10:30;99076.22;;;12.78;100.00
47815;BME280;33579;50.058;18.130;2023-08-08T04:11:31;99074.72;;;12.75;100.00
47815;BME280;33579;50.058;18.130;2023-08-08T04:12:33;99075.47;;;12.68;100.00
47815;BME280;33579;50.058;18.130;2023-08-08T04:13:35;99075.31;;;12.69;100.00
47815;BME280;33579;50.058;18.130;2023-08-08T04:14:36;99081.66;;;12.76;100.00
47815;BME280;33579;50.058;18.130;2023-08-08T04:15:39;99076.28;;;12.86;100.00
47815;BME280;33579;50.058;18.130;2023-08-08T04:16:40;99086.72;;;12.88;100.00
47815;BME280;33579;50.058;18.130;2023-08-08T04:17:42;99080.13;;;12.92;100.00
47815;BME280;33579;50.058;18.130;2023-08-08T04:18:44;99083.22;;;12.87;100.00
47815;BME280;33579;50.058;18.130;2023-08-08T04:19:45;99088.22;;;12.90;100.00
47815;BME280;33579;50.058;18.130;2023-08-08T04:20:47;99087.75;;;12.95;100.00
47815;BME280;33579;50.058;18.130;2023-08-08T04:21:49;99087.75;;;12.95;100.00
47815;BME280;33579;50.058;18.130;2023-08-08T04:22:50;99087.16;;;13.01;100.00
47815;BME280;33579;50.058;18.130;2023-08-08T04:23:52;99089.47;;;13.04;100.00
47815;BME280;33579;50.058;18.130;2023-08-08T04:24:54;99094.63;;;13.06;100.00
47815;BME280;33579;50.058;18.130;2023-08-08T04:25:56;99089.94;;;13.00;100.00
47815;BME280;33579;50.058;18.130;2023-08-08T04:26:57;99099.38;;;13.02;100.00
47815;BME280;33579;50.058;18.130;2023-08-08T04:27:59;99101.03;;;13.03;100.00
47815;BME280;33579;50.058;18.130;2023-08-08T04:29:01;99108.50;;;13.08;100.00
47815;BME280;33579;50.058;18.130;2023-08-08T04:30:02;99103.88;;;13.10;100.00
47815;BME280;33579;50.058;18.130;2023-08-08T04:31:04;99102.59;;;13.14;100.00
47815;BME280;33579;50.058;18.130;2023-08-08T04:32:06;99106.16;;;13.23;100.00
47815;BME280;33579;50.058;18.130;2023-08-08T04:33:08;99102.34;;;13.26;100.00
47815;BME280;33579;50.058;18.130;2023-08-08T04:34:09;99106.66;;;13.27;100.00
47815;BME280;33579;50.058;18.130;2023-08-08T04:35:11;99109.38;;;13.17;100.00
47815;BME280;33579;50.058;18.130;2023-08-08T04:36:13;99106.16;;;13.23;100.00
47815;BME280;33579;50.058;18.130;2023-08-08T04:37:14;99109.59;;;13.24;100.00
47815;BME280;33579;50.058;18.130;2023-08-08T04:38:16;99111.38;;;13.15;100.00
47815;BME280;33579;50.058;18.130;2023-08-08T04:39:18;99113.84;;;13.16;100.00
47815;BME280;33579;50.058;18.130;2023-08-08T04:40:19;99105.09;;;13.16;100.00
47815;BME280;33579;50.058;18.130;2023-08-08T04:41:21;99106.06;;;13.15;100.00
47815;BME280;33579;50.058;18.130;2023-08-08T04:42:23;99106.06;;;13.15;100.00
47815;BME280;33579;50.058;18.130;2023-08-08T04:43:24;99104.41;;;13.14;100.00
47815;BME280;33579;50.058;18.130;2023-08-08T04:44:26;99099.81;;;13.16;100.00
47815;BME280;33579;50.058;18.130;2023-08-08T04:45:28;99101.16;;;13.20;100.00
47815;BME280;33579;50.058;18.130;2023-08-08T04:46:29;99099.72;;;13.26;100.00
47815;BME280;33579;50.058;18.130;2023-08-08T04:47:31;99106.38;;;13.30;100.00
47815;BME280;33579;50.058;18.130;2023-08-08T04:48:33;99108.34;;;13.28;100.00
47815;BME280;33579;50.058;18.130;2023-08-08T04:49:35;99115.06;;;13.22;100.00
47815;BME280;33579;50.058;18.130;2023-08-08T04:50:36;99109.78;;;13.22;100.00
47815;BME280;33579;50.058;18.130;2023-08-08T04:51:38;99104.72;;;13.29;100.00
47815;BME280;33579;50.058;18.130;2023-08-08T04:52:40;99109.16;;;13.28;100.00
47815;BME280;33579;50.058;18.130;2023-08-08T04:53:41;99108.84;;;13.31;100.00
47815;BME280;33579;50.058;18.130;2023-08-08T04:54:43;99115.78;;;13.32;100.00
47815;BME280;33579;50.058;18.130;2023-08-08T04:55:45;99120.78;;;13.35;100.00
47815;BME280;33579;50.058;18.130;2023-08-08T04:56:47;99110.22;;;13.35;100.00
47815;BME280;33579;50.058;18.130;2023-08-08T04:57:49;99114.19;;;13.40;100.00
47815;BME280;33579;50.058;18.130;2023-08-08T04:58:50;99113.53;;;13.38;100.00
47815;BME280;33579;50.058;18.130;2023-08-08T04:59:52;99104.28;;;13.42;100.00
47815;BME280;33579;50.058;18.130;2023-08-08T05:00:53;99111.84;;;13.55;100.00
47815;BME280;33579;50.058;18.130;2023-08-08T05:01:55;99107.38;;;13.55;100.00
47815;BME280;33579;50.058;18.130;2023-08-08T05:02:57;99108.91;;;13.58;100.00
47815;BME280;33579;50.058;18.130;2023-08-08T05:03:59;99110.03;;;13.55;100.00
47815;BME280;33579;50.058;18.130;2023-08-08T05:05:00;99113.19;;;13.59;100.00
47815;BME280;33579;50.058;18.130;2023-08-08T05:06:02;99115.38;;;13.63;100.00
47815;BME280;33579;50.058;18.130;2023-08-08T05:07:04;99111.13;;;13.71;100.00
47815;BME280;33579;50.058;18.130;2023-08-08T05:08:06;99115.78;;;13.77;100.00
47815;BME280;33579;50.058;18.130;2023-08-08T05:09:07;99116.66;;;13.86;100.00
47815;BME280;33579;50.058;18.130;2023-08-08T05:10:09;99109.09;;;13.91;100.00
47815;BME280;33579;50.058;18.130;2023-08-08T05:11:11;99109.72;;;13.85;100.00
47815;BME280;33579;50.058;18.130;2023-08-08T05:12:12;99111.03;;;13.89;100.00
47815;BME280;33579;50.058;18.130;2023-08-08T05:13:14;99115.56;;;13.97;100.00
47815;BME280;33579;50.058;18.130;2023-08-08T05:14:16;99113.41;;;14.00;100.00
47815;BME280;33579;50.058;18.130;2023-08-08T05:15:17;99108.81;;;14.02;100.00
47815;BME280;33579;50.058;18.130;2023-08-08T05:16:19;99104.41;;;14.11;100.00
47815;BME280;33579;50.058;18.130;2023-08-08T05:17:21;99109.69;;;14.19;100.00
47815;BME280;33579;50.058;18.130;2023-08-08T05:18:22;99104.91;;;14.15;100.00
47815;BME280;33579;50.058;18.130;2023-08-08T05:19:24;99110.22;;;14.23;100.00
47815;BME280;33579;50.058;18.130;2023-08-08T05:20:26;99108.75;;;14.29;100.00
47815;BME280;33579;50.058;18.130;2023-08-08T05:21:27;99110.72;;;14.27;100.00
47815;BME280;33579;50.058;18.130;2023-08-08T05:22:29;99116.03;;;14.27;100.00
47815;BME280;33579;50.058;18.130;2023-08-08T05:23:31;99120.19;;;14.29;100.00